createdAt,value
2019-02-15T00:02:21.066Z,1.69
2019-02-15T00:05:02.107Z,1.67
2019-02-15T00:07:31.086Z,1.64
2019-02-15T00:10:00.059Z,1.60
2019-02-15T00:12:29.132Z,1.57
2019-02-15T00:14:58.124Z,1.55
2019-02-15T00:17:44.680Z,1.53
2019-02-15T00:20:22.984Z,1.47
2019-02-15T00:22:51.996Z,1.50
2019-02-15T00:25:20.966Z,1.47
2019-02-15T00:27:49.931Z,1.46
2019-02-15T00:30:20.312Z,1.44
2019-02-15T00:32:49.305Z,1.39
2019-02-15T00:35:18.286Z,1.35
2019-02-15T00:37:47.284Z,1.33
2019-02-15T00:40:16.870Z,1.30
2019-02-15T00:42:45.872Z,1.29
2019-02-15T00:45:16.546Z,1.29
2019-02-15T00:47:57.211Z,1.27
2019-02-15T00:50:44.185Z,1.22
2019-02-15T00:53:50.101Z,1.19
2019-02-15T00:56:25.757Z,1.17
2019-02-15T00:59:06.496Z,1.15
2019-02-15T01:01:52.377Z,1.15
2019-02-15T01:04:46.138Z,1.13
2019-02-15T01:07:25.091Z,1.13
2019-02-15T01:10:18.829Z,1.07
2019-02-15T01:13:06.761Z,1.03
2019-02-15T01:15:35.760Z,1.02
2019-02-15T01:18:04.785Z,1.01
2019-02-15T01:20:33.785Z,1.01
2019-02-15T01:23:02.782Z,0.99
2019-02-15T01:25:38.363Z,0.97
2019-02-15T01:28:29.300Z,0.95
2019-02-15T01:31:20.316Z,0.92
2019-02-15T01:34:16.456Z,0.90
2019-02-15T01:36:53.115Z,0.88
2019-02-15T01:39:28.452Z,0.88
2019-02-15T01:42:15.408Z,0.86
2019-02-15T01:44:51.630Z,0.84
2019-02-15T01:47:45.612Z,0.83
2019-02-15T01:50:14.620Z,0.80
2019-02-15T01:52:43.586Z,0.80
2019-02-15T01:55:12.567Z,0.78
2019-02-15T01:57:41.552Z,0.74
2019-02-15T02:00:13.287Z,0.69
2019-02-15T02:02:42.257Z,0.69
2019-02-15T02:05:11.252Z,0.66
2019-02-15T02:07:40.227Z,0.66
2019-02-15T02:10:10.727Z,0.65
2019-02-15T02:12:39.707Z,0.65
2019-02-15T02:15:11.227Z,0.65
2019-02-15T02:17:40.248Z,0.62
2019-02-15T02:20:10.032Z,0.62
2019-02-15T02:22:39.063Z,0.59
2019-02-15T02:25:08.127Z,0.58
2019-02-15T02:27:37.128Z,0.57
2019-02-15T02:30:08.477Z,0.54
2019-02-15T02:32:37.496Z,0.47
2019-02-15T02:35:06.462Z,0.43
2019-02-15T02:37:35.475Z,0.39
2019-02-15T02:40:04.777Z,0.39
2019-02-15T02:42:33.754Z,0.37
2019-02-15T02:45:02.738Z,0.34
2019-02-15T02:47:31.771Z,0.37
2019-02-15T02:50:00.803Z,0.37
2019-02-15T02:52:29.792Z,0.37
2019-02-15T02:54:58.767Z,0.37
2019-02-15T02:57:27.756Z,0.37
2019-02-15T02:59:56.742Z,0.37
2019-02-15T03:02:25.721Z,0.35
2019-02-15T03:04:54.691Z,0.32
2019-02-15T03:07:23.725Z,-0.20
2019-02-15T03:09:52.725Z,0.28
2019-02-15T03:12:21.715Z,0.26
2019-02-15T03:14:50.726Z,0.26
2019-02-15T03:17:19.658Z,0.26
2019-02-15T03:19:48.650Z,0.27
2019-02-15T03:22:17.631Z,0.26
2019-02-15T03:24:46.647Z,0.21
2019-02-15T03:27:15.659Z,0.21
2019-02-15T03:29:44.643Z,0.23
2019-02-15T03:32:13.620Z,0.22
2019-02-15T03:34:42.621Z,0.16
2019-02-15T03:37:26.497Z,0.19
2019-02-15T03:40:03.176Z,0.18
2019-02-15T03:42:32.142Z,0.14
2019-02-15T03:45:01.150Z,0.09
2019-02-15T03:47:30.132Z,0.11
2019-02-15T03:49:59.147Z,0.09
2019-02-15T03:52:28.189Z,0.06
2019-02-15T03:54:57.164Z,0.02
2019-02-15T03:57:26.189Z,-0.01
2019-02-15T03:59:55.187Z,-0.03
2019-02-15T04:02:24.173Z,-0.05
2019-02-15T04:04:53.226Z,-0.05
2019-02-15T04:07:22.192Z,-0.06
2019-02-15T04:09:51.188Z,-0.08
2019-02-15T04:12:20.225Z,-0.10
2019-02-15T04:14:49.206Z,-0.09
2019-02-15T04:17:18.237Z,-0.09
2019-02-15T04:19:47.239Z,-0.10
2019-02-15T04:22:16.224Z,-0.12
2019-02-15T04:24:45.253Z,-0.12
2019-02-15T04:27:14.262Z,-0.16
2019-02-15T04:29:43.247Z,-0.18
2019-02-15T04:32:12.257Z,-0.19
2019-02-15T04:34:41.279Z,-0.21
2019-02-15T04:37:10.312Z,-0.24
2019-02-15T04:39:39.320Z,-0.27
2019-02-15T04:42:08.310Z,-0.31
2019-02-15T04:44:42.901Z,-0.33
2019-02-15T04:47:08.147Z,-0.38
2019-02-15T04:49:37.149Z,-0.40
2019-02-15T04:52:06.128Z,-0.42
2019-02-15T04:54:35.121Z,-0.44
2019-02-15T04:57:04.161Z,-0.45
2019-02-15T04:59:33.148Z,-0.44
2019-02-15T05:02:02.206Z,-0.45
2019-02-15T05:04:31.259Z,-0.45
2019-02-15T05:07:00.249Z,-0.44
2019-02-15T05:09:29.274Z,-0.45
2019-02-15T05:11:58.345Z,-0.44
2019-02-15T05:14:27.379Z,-0.44
2019-02-15T05:16:56.358Z,-0.43
2019-02-15T05:19:25.351Z,-0.45
2019-02-15T05:21:54.403Z,-0.47
2019-02-15T05:24:23.395Z,-0.48
2019-02-15T05:26:52.414Z,-0.49
2019-02-15T05:29:21.399Z,-0.50
2019-02-15T05:31:50.433Z,-0.49
2019-02-15T05:34:19.419Z,-0.51
2019-02-15T05:36:48.442Z,-0.52
2019-02-15T05:39:17.447Z,-0.54
2019-02-15T05:41:46.476Z,-0.56
2019-02-15T05:44:16.357Z,-0.58
2019-02-15T05:46:45.430Z,-0.57
2019-02-15T05:49:14.422Z,-0.59
2019-02-15T05:51:43.520Z,-0.64
2019-02-15T05:54:12.518Z,-0.65
2019-02-15T05:56:41.764Z,-0.66
2019-02-15T05:59:10.827Z,-0.68
2019-02-15T06:01:39.839Z,-0.68
2019-02-15T06:04:08.850Z,-0.70
2019-02-15T06:06:37.912Z,-0.69
2019-02-15T06:09:07.339Z,-0.70
2019-02-15T06:11:36.355Z,-0.69
2019-02-15T06:14:05.353Z,-0.70
2019-02-15T06:16:34.460Z,-0.71
2019-02-15T06:19:03.476Z,-0.72
2019-02-15T06:21:32.496Z,-0.73
2019-02-15T06:24:01.509Z,-0.72
2019-02-15T06:26:30.586Z,-0.75
2019-02-15T06:28:59.617Z,-0.74
2019-02-15T06:31:28.657Z,-0.74
2019-02-15T06:33:57.655Z,-0.75
2019-02-15T06:36:29.886Z,-0.75
2019-02-15T06:38:58.959Z,-0.74
2019-02-15T06:41:27.956Z,-0.77
2019-02-15T06:43:56.983Z,-0.78
2019-02-15T06:46:25.983Z,-0.79
2019-02-15T06:48:55.011Z,-0.79
2019-02-15T06:51:24.064Z,-0.78
2019-02-15T06:53:52.981Z,-0.77
2019-02-15T06:56:22.097Z,-0.76
2019-02-15T06:59:06.780Z,-0.77
2019-02-15T07:01:53.356Z,-0.74
2019-02-15T07:04:27.456Z,-0.69
2019-02-15T07:06:56.466Z,-0.20
2019-02-15T07:09:25.498Z,0.43
2019-02-15T07:11:54.576Z,0.63
2019-02-15T07:14:23.568Z,0.72
2019-02-15T07:16:52.594Z,0.92
2019-02-15T07:19:21.736Z,1.51
2019-02-15T07:21:50.786Z,2.55
2019-02-15T07:24:19.759Z,3.51
2019-02-15T07:26:48.765Z,4.28
2019-02-15T07:29:17.789Z,4.73
2019-02-15T07:31:46.783Z,5.04
2019-02-15T07:34:15.758Z,5.44
2019-02-15T07:36:44.754Z,5.66
2019-02-15T07:39:13.783Z,5.85
2019-02-15T07:41:42.775Z,6.19
2019-02-15T07:44:11.798Z,6.64
2019-02-15T07:46:40.831Z,7.23
2019-02-15T07:49:09.861Z,8.04
2019-02-15T07:51:38.831Z,8.85
2019-02-15T07:54:07.882Z,9.58
2019-02-15T07:56:36.875Z,9.76
2019-02-15T07:59:05.842Z,9.61
2019-02-15T08:01:34.818Z,9.58
2019-02-15T08:04:03.862Z,9.87
2019-02-15T08:06:32.850Z,10.09
2019-02-15T08:09:01.890Z,10.06
2019-02-15T08:11:30.874Z,10.03
2019-02-15T08:13:59.884Z,10.21
2019-02-15T08:16:28.866Z,10.04
2019-02-15T08:18:57.866Z,10.23
2019-02-15T08:21:26.890Z,10.73
2019-02-15T08:23:55.975Z,11.22
2019-02-15T08:26:25.005Z,11.70
2019-02-15T08:28:54.047Z,12.07
2019-02-15T08:31:23.067Z,12.26
2019-02-15T08:33:52.108Z,12.18
2019-02-15T08:36:21.109Z,11.33
2019-02-15T08:38:50.102Z,12.41
2019-02-15T08:41:19.108Z,12.65
2019-02-15T08:43:48.117Z,13.09
2019-02-15T08:46:17.129Z,13.56
2019-02-15T08:48:46.643Z,13.75
2019-02-15T08:51:15.677Z,14.04
2019-02-15T08:53:44.695Z,14.58
2019-02-15T08:56:13.720Z,14.98
2019-02-15T08:58:42.733Z,15.41
2019-02-15T09:01:11.736Z,15.83
2019-02-15T09:03:40.734Z,16.38
2019-02-15T09:06:09.768Z,16.76
2019-02-15T09:08:38.800Z,17.13
2019-02-15T09:11:08.169Z,17.56
2019-02-15T09:13:37.160Z,18.32
2019-02-15T09:16:10.373Z,18.91
2019-02-15T09:18:36.932Z,19.50
2019-02-15T09:21:05.980Z,20.27
2019-02-15T09:23:34.998Z,20.91
2019-02-15T09:26:03.991Z,21.41
2019-02-15T09:28:40.074Z,21.59
2019-02-15T09:31:09.132Z,21.95
2019-02-15T09:33:38.152Z,22.06
2019-02-15T09:36:07.159Z,22.28
2019-02-15T09:38:36.252Z,22.51
2019-02-15T09:41:05.299Z,22.30
2019-02-15T09:43:34.331Z,22.51
2019-02-15T09:46:03.319Z,22.62
2019-02-15T09:48:32.361Z,22.62
2019-02-15T09:51:01.400Z,22.67
2019-02-15T09:53:30.397Z,22.52
2019-02-15T09:55:59.476Z,22.61
2019-02-15T09:58:28.495Z,22.45
2019-02-15T10:00:57.579Z,22.19
2019-02-15T10:03:26.586Z,22.23
2019-02-15T10:05:55.605Z,22.19
2019-02-15T10:08:24.602Z,22.25
2019-02-15T10:10:53.617Z,22.27
2019-02-15T10:13:22.651Z,22.11
2019-02-15T10:15:51.713Z,22.06
2019-02-15T10:18:20.727Z,22.08
2019-02-15T10:20:49.802Z,21.84
2019-02-15T10:23:18.808Z,21.97
2019-02-15T10:25:47.806Z,21.99
2019-02-15T10:28:16.861Z,21.72
2019-02-15T10:30:45.885Z,21.66
2019-02-15T10:33:14.930Z,21.73
2019-02-15T10:35:43.944Z,21.68
2019-02-15T10:38:12.939Z,21.45
2019-02-15T10:40:41.934Z,21.16
2019-02-15T10:43:10.990Z,20.69
2019-02-15T10:45:40.595Z,20.48
2019-02-15T10:48:10.759Z,20.50
2019-02-15T10:50:40.010Z,20.19
2019-02-15T10:53:10.914Z,20.00
2019-02-15T10:55:39.726Z,19.63
2019-02-15T10:58:08.745Z,19.35
2019-02-15T11:00:37.781Z,19.32
2019-02-15T11:03:06.813Z,19.11
2019-02-15T11:05:35.821Z,18.84
2019-02-15T11:08:04.849Z,18.81
2019-02-15T11:10:33.853Z,18.68
2019-02-15T11:13:02.891Z,18.49
2019-02-15T11:15:31.909Z,18.65
2019-02-15T11:18:00.947Z,18.47
2019-02-15T11:20:29.977Z,18.19
2019-02-15T11:22:59.068Z,17.90
2019-02-15T11:25:28.115Z,17.76
2019-02-15T11:27:57.172Z,17.74
2019-02-15T11:30:26.194Z,17.83
2019-02-15T11:32:55.197Z,17.89
2019-02-15T11:35:24.754Z,17.71
2019-02-15T11:37:53.752Z,17.68
2019-02-15T11:40:22.822Z,17.68
2019-02-15T11:42:51.826Z,17.58
2019-02-15T11:45:20.808Z,17.49
2019-02-15T11:47:49.836Z,17.48
2019-02-15T11:50:21.644Z,17.41
2019-02-15T11:52:50.661Z,17.46
2019-02-15T11:55:19.738Z,17.37
2019-02-15T11:57:48.765Z,17.42
2019-02-15T12:00:23.174Z,17.15
2019-02-15T12:02:52.140Z,17.15
2019-02-15T12:05:21.158Z,17.18
2019-02-15T12:07:51.759Z,17.18
2019-02-15T12:10:20.936Z,17.04
2019-02-15T12:12:49.986Z,16.97
2019-02-15T12:15:18.983Z,16.92
2019-02-15T12:17:48.150Z,16.83
2019-02-15T12:20:17.191Z,16.86
2019-02-15T12:22:46.295Z,16.83
2019-02-15T12:25:15.370Z,16.87
2019-02-15T12:27:44.379Z,16.92
2019-02-15T12:30:13.407Z,16.81
2019-02-15T12:32:42.442Z,16.79
2019-02-15T12:35:11.503Z,16.67
2019-02-15T12:37:40.553Z,16.59
2019-02-15T12:40:09.607Z,16.58
2019-02-15T12:42:38.629Z,16.58
2019-02-15T12:45:08.450Z,16.52
2019-02-15T12:47:37.490Z,16.47
2019-02-15T12:50:09.082Z,16.45
2019-02-15T12:52:38.118Z,16.43
2019-02-15T12:55:07.269Z,16.37
2019-02-15T12:57:36.252Z,16.45
2019-02-15T13:00:06.540Z,16.42
2019-02-15T13:02:36.891Z,16.37
2019-02-15T13:05:06.236Z,16.50
2019-02-15T13:07:35.256Z,16.64
2019-02-15T13:10:05.493Z,16.77
2019-02-15T13:12:34.615Z,16.81
2019-02-15T13:15:03.684Z,16.90
2019-02-15T13:17:32.774Z,17.04
2019-02-15T13:20:01.797Z,17.02
2019-02-15T13:22:30.894Z,17.04
2019-02-15T13:24:59.989Z,16.96
2019-02-15T13:27:29.041Z,17.01
2019-02-15T13:29:58.044Z,17.11
2019-02-15T13:32:27.047Z,17.26
2019-02-15T13:34:56.051Z,17.22
2019-02-15T13:37:25.403Z,17.35
2019-02-15T13:39:54.676Z,17.34
2019-02-15T13:42:23.674Z,17.36
2019-02-15T13:44:53.042Z,17.23
2019-02-15T13:47:22.108Z,17.06
2019-02-15T13:49:51.149Z,16.96
2019-02-15T13:52:20.220Z,16.98
2019-02-15T13:54:49.264Z,17.01
2019-02-15T13:57:18.286Z,17.09
2019-02-15T13:59:47.294Z,17.06
2019-02-15T14:02:16.366Z,17.15
2019-02-15T14:04:45.487Z,17.06
2019-02-15T14:07:19.353Z,17.07
2019-02-15T14:09:48.430Z,17.02
2019-02-15T14:12:17.715Z,17.01
2019-02-15T14:14:46.803Z,17.03
2019-02-15T14:17:15.858Z,16.99
2019-02-15T14:19:44.911Z,16.85
2019-02-15T14:22:14.059Z,16.82
2019-02-15T14:24:43.146Z,16.79
2019-02-15T14:27:13.150Z,16.81
2019-02-15T14:29:42.660Z,16.76
2019-02-15T14:32:12.223Z,16.67
2019-02-15T14:34:41.347Z,16.70
2019-02-15T14:37:10.520Z,16.71
2019-02-15T14:39:39.869Z,16.64
2019-02-15T14:42:08.975Z,16.50
2019-02-15T14:44:38.243Z,16.44
2019-02-15T14:47:07.479Z,16.47
2019-02-15T14:49:36.563Z,16.41
2019-02-15T14:52:05.598Z,16.35
2019-02-15T14:54:34.659Z,16.35
2019-02-15T14:57:03.700Z,16.29
2019-02-15T14:59:32.760Z,16.29
2019-02-15T15:02:01.845Z,16.16
2019-02-15T15:04:30.944Z,16.10
2019-02-15T15:06:59.976Z,16.01
2019-02-15T15:09:29.022Z,15.91
2019-02-15T15:11:58.058Z,15.85
2019-02-15T15:14:27.218Z,15.79
2019-02-15T15:16:56.413Z,15.75
2019-02-15T15:19:25.500Z,15.74
2019-02-15T15:21:54.600Z,15.65
2019-02-15T15:24:23.656Z,15.60
2019-02-15T15:26:52.685Z,15.54
2019-02-15T15:29:21.781Z,15.43
2019-02-15T15:31:50.846Z,15.39
2019-02-15T15:34:20.416Z,15.36
2019-02-15T15:36:50.199Z,15.30
2019-02-15T15:39:19.433Z,15.25
2019-02-15T15:41:48.500Z,15.19
2019-02-15T15:44:17.567Z,15.12
2019-02-15T15:46:46.582Z,15.12
2019-02-15T15:49:16.833Z,15.00
2019-02-15T15:51:46.016Z,14.92
2019-02-15T15:54:15.075Z,14.89
2019-02-15T15:56:44.119Z,14.81
2019-02-15T15:59:13.133Z,14.74
2019-02-15T16:01:42.188Z,14.68
2019-02-15T16:04:11.207Z,14.61
2019-02-15T16:06:40.356Z,14.58
2019-02-15T16:09:09.359Z,14.52
2019-02-15T16:11:38.384Z,14.50
2019-02-15T16:14:07.455Z,14.45
2019-02-15T16:16:37.335Z,14.44
2019-02-15T16:19:06.378Z,14.36
2019-02-15T16:21:35.382Z,14.26
2019-02-15T16:24:12.388Z,14.15
2019-02-15T16:26:35.195Z,14.03
2019-02-15T16:29:04.272Z,13.90
2019-02-15T16:31:33.255Z,13.75
2019-02-15T16:34:02.273Z,13.61
2019-02-15T16:36:31.537Z,13.49
2019-02-15T16:39:00.582Z,13.37
2019-02-15T16:41:30.066Z,13.26
2019-02-15T16:43:59.115Z,13.17
2019-02-15T16:46:28.166Z,13.03
2019-02-15T16:48:57.203Z,12.94
2019-02-15T16:51:26.433Z,12.84
2019-02-15T16:53:55.508Z,12.79
2019-02-15T16:56:24.528Z,12.66
2019-02-15T16:58:53.630Z,12.57
2019-02-15T17:01:24.077Z,12.45
2019-02-15T17:03:53.253Z,12.32
2019-02-15T17:06:23.394Z,12.18
2019-02-15T17:08:52.639Z,12.07
2019-02-15T17:11:21.744Z,11.98
2019-02-15T17:13:50.755Z,11.87
2019-02-15T17:16:19.866Z,11.78
2019-02-15T17:18:51.732Z,11.67
2019-02-15T17:21:19.689Z,11.59
2019-02-15T17:23:48.738Z,11.49
2019-02-15T17:26:17.831Z,11.39
2019-02-15T17:28:46.974Z,11.32
2019-02-15T17:31:16.164Z,11.20
2019-02-15T17:33:45.317Z,11.12
2019-02-15T17:36:14.359Z,11.04
2019-02-15T17:38:43.483Z,10.94
2019-02-15T17:41:12.991Z,10.86
2019-02-15T17:43:42.030Z,10.82
2019-02-15T17:46:11.224Z,10.75
2019-02-15T17:48:40.393Z,10.59
2019-02-15T17:51:10.811Z,10.48
2019-02-15T17:53:40.748Z,10.34
2019-02-15T17:56:10.531Z,10.24
2019-02-15T17:58:39.924Z,10.20
2019-02-15T18:01:09.403Z,10.12
2019-02-15T18:03:39.463Z,10.08
2019-02-15T18:06:11.535Z,10.01
2019-02-15T18:08:41.161Z,9.90
2019-02-15T18:11:12.260Z,9.83
2019-02-15T18:13:44.900Z,9.80
2019-02-15T18:16:15.519Z,9.76
2019-02-15T18:18:47.036Z,9.74
2019-02-15T18:21:17.905Z,9.73
2019-02-15T18:23:49.262Z,9.69
2019-02-15T18:26:21.653Z,9.63
2019-02-15T18:28:52.071Z,9.57
2019-02-15T18:31:23.924Z,9.46
2019-02-15T18:33:55.591Z,9.37
2019-02-15T18:36:27.009Z,9.25
2019-02-15T18:38:58.830Z,9.17
2019-02-15T18:41:30.981Z,9.09
2019-02-15T18:44:02.692Z,9.08
2019-02-15T18:46:34.391Z,9.04
2019-02-15T18:49:06.628Z,8.91
2019-02-15T18:51:39.102Z,8.85
2019-02-15T18:54:11.131Z,8.78
2019-02-15T18:56:44.958Z,8.72
2019-02-15T18:59:17.674Z,8.68
2019-02-15T19:01:57.279Z,8.64
2019-02-15T19:04:31.761Z,8.61
2019-02-15T19:07:03.473Z,8.58
2019-02-15T19:09:35.386Z,8.49
2019-02-15T19:12:06.539Z,8.43
2019-02-15T19:14:37.641Z,8.41
2019-02-15T19:17:09.262Z,8.37
2019-02-15T19:19:40.274Z,8.34
2019-02-15T19:22:10.821Z,8.30
2019-02-15T19:24:40.696Z,8.28
2019-02-15T19:27:10.926Z,8.24
2019-02-15T19:29:41.661Z,8.18
2019-02-15T19:32:11.701Z,8.14
2019-02-15T19:34:42.566Z,8.08
2019-02-15T19:37:13.071Z,8.05
2019-02-15T19:39:43.813Z,7.98
2019-02-15T19:42:19.219Z,7.91
2019-02-15T19:44:52.708Z,7.84
2019-02-15T19:47:25.457Z,7.81
2019-02-15T19:49:58.409Z,7.77
2019-02-15T19:52:30.266Z,7.73
2019-02-15T19:55:04.638Z,7.71
2019-02-15T19:57:38.207Z,7.70
2019-02-15T20:00:17.939Z,7.65
2019-02-15T20:02:59.631Z,7.65
2019-02-15T20:05:35.074Z,7.61
2019-02-15T20:08:12.564Z,7.56
2019-02-15T20:10:50.561Z,7.57
2019-02-15T20:13:26.497Z,7.55
2019-02-15T20:16:00.430Z,7.55
2019-02-15T20:18:37.938Z,7.52
2019-02-15T20:21:13.279Z,7.47
2019-02-15T20:23:51.415Z,7.41
2019-02-15T20:26:30.237Z,7.38
2019-02-15T20:29:07.581Z,7.36
2019-02-15T20:31:46.833Z,7.33
2019-02-15T20:34:25.071Z,7.30
2019-02-15T20:37:03.146Z,7.28
2019-02-15T20:39:41.746Z,7.29
2019-02-15T20:42:19.205Z,7.23
2019-02-15T20:44:54.599Z,7.23
2019-02-15T20:47:47.615Z,7.21
2019-02-15T20:50:27.474Z,7.17
2019-02-15T20:53:02.071Z,7.14
2019-02-15T20:55:35.334Z,7.12
2019-02-15T20:58:10.606Z,7.05
2019-02-15T21:00:47.720Z,7.00
2019-02-15T21:03:25.629Z,6.97
2019-02-15T21:06:03.174Z,6.95
2019-02-15T21:08:41.492Z,6.92
2019-02-15T21:11:19.807Z,6.87
2019-02-15T21:13:54.743Z,6.82
2019-02-15T21:16:32.279Z,6.79
2019-02-15T21:19:10.828Z,6.72
2019-02-15T21:21:43.532Z,6.68
2019-02-15T21:24:16.016Z,6.63
2019-02-15T21:26:54.473Z,6.58
2019-02-15T21:29:28.569Z,6.52
2019-02-15T21:32:02.928Z,6.47
2019-02-15T21:34:36.765Z,6.41
2019-02-15T21:37:09.290Z,6.36
2019-02-15T21:39:41.096Z,6.34
2019-02-15T21:42:12.492Z,6.32
2019-02-15T21:44:43.832Z,6.29
2019-02-15T21:47:13.920Z,6.27
2019-02-15T21:49:43.484Z,6.25
2019-02-15T21:52:14.082Z,6.21
2019-02-15T21:54:44.460Z,6.20
2019-02-15T21:57:14.545Z,6.16
2019-02-15T21:59:44.855Z,6.16
2019-02-15T22:02:14.497Z,6.18
2019-02-15T22:04:43.776Z,6.16
2019-02-15T22:07:12.807Z,6.14
2019-02-15T22:09:41.787Z,6.12
2019-02-15T22:12:10.836Z,6.11
2019-02-15T22:14:39.875Z,6.10
2019-02-15T22:17:08.937Z,6.09
2019-02-15T22:19:37.978Z,6.07
2019-02-15T22:22:07.114Z,6.05
2019-02-15T22:24:36.166Z,6.04
2019-02-15T22:27:05.251Z,6.09
2019-02-15T22:29:34.418Z,6.07
2019-02-15T22:32:03.687Z,6.06
2019-02-15T22:34:32.879Z,6.07
2019-02-15T22:37:01.867Z,6.13
2019-02-15T22:39:30.845Z,6.16
2019-02-15T22:41:59.864Z,6.17
2019-02-15T22:44:28.849Z,6.16
2019-02-15T22:46:57.906Z,6.15
2019-02-15T22:49:26.986Z,6.18
2019-02-15T22:51:55.980Z,6.19
2019-02-15T22:54:24.997Z,6.20
2019-02-15T22:56:54.054Z,6.20
2019-02-15T22:59:23.061Z,6.30
2019-02-15T23:01:52.109Z,6.44
2019-02-15T23:04:21.270Z,6.69
2019-02-15T23:06:53.294Z,6.66
2019-02-15T23:09:26.421Z,6.70
2019-02-15T23:11:55.503Z,6.63
2019-02-15T23:14:24.493Z,6.62
2019-02-15T23:16:53.523Z,6.59
2019-02-15T23:19:22.544Z,6.59
2019-02-15T23:21:51.559Z,6.54
2019-02-15T23:24:20.552Z,6.50
2019-02-15T23:26:49.575Z,6.48
2019-02-15T23:29:18.571Z,6.45
2019-02-15T23:31:47.561Z,6.43
2019-02-15T23:34:16.523Z,6.37
2019-02-15T23:36:45.527Z,6.34
2019-02-15T23:39:14.503Z,6.30
2019-02-15T23:41:43.497Z,6.22
2019-02-15T23:44:12.490Z,6.16
2019-02-15T23:46:41.508Z,6.10
2019-02-15T23:49:10.530Z,6.03
2019-02-15T23:51:39.520Z,5.99
2019-02-15T23:54:08.524Z,5.95
2019-02-15T23:56:37.536Z,5.91
2019-02-15T23:59:06.532Z,5.86
